New Hampton, New York
Current Conditions -  °F | °C
As of 1:54 AM on Monday 22 Dec 2014 (Local Time) from KMGJ Reporting Station
Overcast Overcast  
Wind Chill: 26°   Ceiling: 1500
Heat Index: 31°   Visibility: 10mi
Dew Point: 26°   Wind: 5mph
Humidity: 82%   Direction: 30°NNE
Pressure: 30.32"   Gusts: NA
Location:  41.41°N, 74.41°W
Report Text: KMGJ 220654Z AUTO 03004KT 10SM OVC015 M01/M03 A3032 RMK AO2 SLP272 T10061033 TSNO
Loading
Personal Weather Stations






























Interactive Weather Map New forecast layout! Learn more

10-Day Weather Forecast

Advertisements
Track Severe Weather on mobile